Finly, Indiana
Current Conditions -  °F | °C
As of 4:53 PM on Tuesday 25 Nov 2014 (Local Time) from KGEZ Reporting Station
Overcast Overcast  
Wind Chill: 26°   Ceiling: 1900
Heat Index: 32°   Visibility: 10mi
Dew Point: 24°   Wind: 7mph
Humidity: 73%   Direction: 300°WNW
Pressure: 30.15"   Gusts: NA
Location:  39.71°N, 85.82°W
Report Text: KGEZ 252153Z AUTO 30006KT 10SM OVC019 00/M04 A3015 RMK AO2 SLP218 T00001044
Loading
Personal Weather Stations






























Interactive Weather Map New forecast layout! Learn more

10-Day Weather Forecast

Advertisements
Track Severe Weather on mobile